createdAt,value
2018-09-27T00:02:49.991Z,18.00
2018-09-27T00:07:53.718Z,18.00
2018-09-27T00:12:57.414Z,18.00
2018-09-27T00:18:01.127Z,18.00
2018-09-27T00:23:04.818Z,18.00
2018-09-27T00:28:08.534Z,18.00
2018-09-27T00:33:12.262Z,17.90
2018-09-27T00:38:15.954Z,18.00
2018-09-27T00:43:19.662Z,18.00
2018-09-27T00:48:23.363Z,18.00
2018-09-27T00:53:27.070Z,17.90
2018-09-27T00:58:30.759Z,17.90
2018-09-27T01:03:34.466Z,18.00
2018-09-27T01:08:38.190Z,17.90
2018-09-27T01:13:41.902Z,17.90
2018-09-27T01:18:45.650Z,17.90
2018-09-27T01:23:49.359Z,17.90
2018-09-27T01:28:53.055Z,17.90
2018-09-27T01:33:56.775Z,17.90
2018-09-27T01:39:00.470Z,17.90
2018-09-27T01:44:04.261Z,17.90
2018-09-27T01:49:07.967Z,17.90
2018-09-27T01:54:11.698Z,17.90
2018-09-27T01:59:15.399Z,18.00
2018-09-27T02:04:19.101Z,18.00
2018-09-27T02:09:22.839Z,18.00
2018-09-27T02:14:26.675Z,18.00
2018-09-27T02:19:30.383Z,18.00
2018-09-27T02:24:34.124Z,18.00
2018-09-27T02:29:37.888Z,17.90
2018-09-27T02:34:41.616Z,17.90
2018-09-27T02:39:45.355Z,17.90
2018-09-27T02:44:49.072Z,17.90
2018-09-27T02:49:52.811Z,17.90
2018-09-27T02:54:56.535Z,17.90
2018-09-27T03:00:00.280Z,17.90
2018-09-27T03:05:04.192Z,17.90
2018-09-27T03:10:07.955Z,17.80
2018-09-27T03:15:11.717Z,17.90
2018-09-27T03:20:15.448Z,17.90
2018-09-27T03:25:19.192Z,17.90
2018-09-27T03:30:22.905Z,17.90
2018-09-27T03:35:26.743Z,17.90
2018-09-27T03:40:30.509Z,17.90
2018-09-27T03:45:34.215Z,17.90
2018-09-27T03:50:37.938Z,17.90
2018-09-27T03:55:41.668Z,17.90
2018-09-27T04:00:45.381Z,17.90
2018-09-27T04:05:49.151Z,17.90
2018-09-27T04:10:52.874Z,17.90
2018-09-27T04:15:56.672Z,17.80
2018-09-27T04:21:00.331Z,17.80
2018-09-27T04:26:04.040Z,17.80
2018-09-27T04:31:07.891Z,17.90
2018-09-27T04:36:11.645Z,17.80
2018-09-27T04:41:15.349Z,17.90
2018-09-27T04:46:19.072Z,17.80
2018-09-27T04:51:22.780Z,17.80
2018-09-27T04:56:26.528Z,17.80
2018-09-27T05:01:30.231Z,17.80
2018-09-27T05:06:33.940Z,17.70
2018-09-27T05:11:37.693Z,17.70
2018-09-27T05:16:41.414Z,17.70
2018-09-27T05:21:45.260Z,17.70
2018-09-27T05:26:48.864Z,17.60
2018-09-27T05:31:52.571Z,17.60
2018-09-27T05:36:56.299Z,17.60
2018-09-27T05:42:00.052Z,17.50
2018-09-27T05:47:03.759Z,17.50
2018-09-27T05:52:07.516Z,17.40
2018-09-27T05:57:11.378Z,17.40
2018-09-27T06:02:15.108Z,17.30
2018-09-27T06:07:18.879Z,17.30
2018-09-27T06:12:22.659Z,17.30
2018-09-27T06:17:26.343Z,17.20
2018-09-27T06:22:30.099Z,17.20
2018-09-27T06:27:34.614Z,17.20
2018-09-27T06:32:38.539Z,17.20
2018-09-27T06:37:42.280Z,17.20
2018-09-27T06:42:46.020Z,17.20
2018-09-27T06:47:49.760Z,17.30
2018-09-27T06:52:53.736Z,17.30
2018-09-27T06:57:57.460Z,17.40
2018-09-27T07:03:01.233Z,17.40
2018-09-27T07:08:05.247Z,17.50
2018-09-27T07:13:08.967Z,17.50
2018-09-27T07:18:12.715Z,17.60
2018-09-27T07:23:16.444Z,17.70
2018-09-27T07:28:20.175Z,17.70
2018-09-27T07:33:23.912Z,17.80
2018-09-27T07:38:27.755Z,17.90
2018-09-27T07:43:31.417Z,17.90
2018-09-27T07:48:35.232Z,18.00
2018-09-27T07:53:38.884Z,18.10
2018-09-27T07:58:42.673Z,18.20
2018-09-27T08:03:46.550Z,18.20
2018-09-27T08:08:50.255Z,18.30
2018-09-27T08:13:53.993Z,18.40
2018-09-27T08:18:57.759Z,18.50
2018-09-27T08:24:01.615Z,18.60
2018-09-27T08:29:05.604Z,18.70
2018-09-27T08:34:09.479Z,18.90
2018-09-27T08:39:13.312Z,19.00
2018-09-27T08:44:17.044Z,19.10
2018-09-27T08:49:20.828Z,19.30
2018-09-27T08:54:24.551Z,19.40
2018-09-27T08:59:28.279Z,19.60
2018-09-27T09:04:32.012Z,19.70
2018-09-27T09:09:35.832Z,19.90
2018-09-27T09:14:39.495Z,20.00
2018-09-27T09:19:43.294Z,20.10
2018-09-27T09:24:46.951Z,20.30
2018-09-27T09:29:50.784Z,20.50
2018-09-27T09:34:54.409Z,20.70
2018-09-27T09:39:58.152Z,20.90
2018-09-27T09:45:01.896Z,21.10
2018-09-27T09:50:05.689Z,21.20
2018-09-27T09:55:09.347Z,21.40
2018-09-27T10:00:13.092Z,21.50
2018-09-27T10:05:16.820Z,21.70
2018-09-27T10:10:20.534Z,21.90
2018-09-27T10:15:24.304Z,22.00
2018-09-27T10:20:28.023Z,22.20
2018-09-27T10:25:31.763Z,22.30
2018-09-27T10:30:35.566Z,22.40
2018-09-27T10:35:39.363Z,22.60
2018-09-27T10:40:43.240Z,22.70
2018-09-27T10:45:46.944Z,22.80
2018-09-27T10:50:50.749Z,23.00
2018-09-27T10:55:54.463Z,23.00
2018-09-27T11:00:58.191Z,23.20
2018-09-27T11:06:01.940Z,23.20
2018-09-27T11:11:06.068Z,23.20
2018-09-27T11:16:09.751Z,23.20
2018-09-27T11:21:13.517Z,23.20
2018-09-27T11:26:17.258Z,23.20
2018-09-27T11:31:26.378Z,23.20
2018-09-27T11:36:30.096Z,23.20
2018-09-27T11:41:33.816Z,23.20
2018-09-27T11:46:37.527Z,23.20
2018-09-27T11:51:41.250Z,23.30
2018-09-27T11:56:45.051Z,23.30
2018-09-27T12:01:48.798Z,23.30
2018-09-27T12:06:52.500Z,23.40
2018-09-27T12:11:56.893Z,23.50
2018-09-27T12:17:00.619Z,23.60
2018-09-27T12:22:04.402Z,23.70
2018-09-27T12:27:08.137Z,23.90
2018-09-27T12:32:11.902Z,24.00
2018-09-27T12:37:15.605Z,24.10
2018-09-27T12:42:19.406Z,24.10
2018-09-27T12:47:23.079Z,24.30
2018-09-27T12:52:26.865Z,24.30
2018-09-27T12:57:30.610Z,24.40
2018-09-27T13:02:34.429Z,24.50
2018-09-27T13:07:38.079Z,24.60
2018-09-27T13:12:41.875Z,24.70
2018-09-27T13:17:45.584Z,24.80
2018-09-27T13:22:49.298Z,24.90
2018-09-27T13:27:53.032Z,25.00
2018-09-27T13:32:56.797Z,25.00
2018-09-27T13:38:00.497Z,25.10
2018-09-27T13:43:04.259Z,25.20
2018-09-27T13:48:07.947Z,25.20
2018-09-27T13:53:11.751Z,25.20
2018-09-27T13:58:15.476Z,25.30
2018-09-27T14:03:19.209Z,25.40
2018-09-27T14:08:23.047Z,25.40
2018-09-27T14:13:26.790Z,25.40
2018-09-27T14:18:30.510Z,25.50
2018-09-27T14:23:34.210Z,25.60
2018-09-27T14:28:37.976Z,25.60
2018-09-27T14:33:41.688Z,25.60
2018-09-27T14:38:45.479Z,25.60
2018-09-27T14:43:49.280Z,25.60
2018-09-27T14:48:52.987Z,25.60
2018-09-27T14:53:56.852Z,25.60
2018-09-27T14:59:00.589Z,25.60
2018-09-27T15:04:04.319Z,25.60
2018-09-27T15:09:09.459Z,25.50
2018-09-27T15:14:13.168Z,25.50
2018-09-27T15:19:16.887Z,25.40
2018-09-27T15:24:20.699Z,25.40
2018-09-27T15:29:24.520Z,25.30
2018-09-27T15:34:28.276Z,25.20
2018-09-27T15:39:32.027Z,25.20
2018-09-27T15:44:35.780Z,25.20
2018-09-27T15:49:39.513Z,25.10
2018-09-27T15:54:43.355Z,25.00
2018-09-27T15:59:47.152Z,25.00
2018-09-27T16:04:51.045Z,24.90
2018-09-27T16:09:54.730Z,24.80
2018-09-27T16:14:58.567Z,24.80
2018-09-27T16:20:02.331Z,24.70
2018-09-27T16:25:06.605Z,24.60
2018-09-27T16:30:10.323Z,24.50
2018-09-27T16:35:14.044Z,24.40
2018-09-27T16:40:17.812Z,24.40
2018-09-27T16:45:21.531Z,24.30
2018-09-27T16:50:25.284Z,24.20
2018-09-27T16:55:28.995Z,24.10
2018-09-27T17:00:32.727Z,24.00
2018-09-27T17:05:36.564Z,23.90
2018-09-27T17:10:40.400Z,23.80
2018-09-27T17:15:44.108Z,23.70
2018-09-27T17:20:47.911Z,23.70
2018-09-27T17:25:51.771Z,23.60
2018-09-27T17:30:55.496Z,23.50
2018-09-27T17:35:59.298Z,23.40
2018-09-27T17:41:03.047Z,23.30
2018-09-27T17:46:06.992Z,23.20
2018-09-27T17:51:10.811Z,23.10
2018-09-27T17:56:14.520Z,23.00
2018-09-27T18:01:18.292Z,22.90
2018-09-27T18:06:22.032Z,22.80
2018-09-27T18:11:25.755Z,22.70
2018-09-27T18:16:29.493Z,22.60
2018-09-27T18:21:33.330Z,22.50
2018-09-27T18:26:37.104Z,22.30
2018-09-27T18:31:40.984Z,22.20
2018-09-27T18:36:45.955Z,22.10
2018-09-27T18:41:49.688Z,22.00
2018-09-27T18:46:53.537Z,21.90
2018-09-27T18:51:57.292Z,21.80
2018-09-27T18:57:01.026Z,21.70
2018-09-27T19:02:04.840Z,21.60
2018-09-27T19:07:08.598Z,21.50
2018-09-27T19:12:12.537Z,21.40
2018-09-27T19:17:16.458Z,21.30
2018-09-27T19:22:20.188Z,21.20
2018-09-27T19:27:24.004Z,21.10
2018-09-27T19:32:27.848Z,21.00
2018-09-27T19:37:31.663Z,21.00
2018-09-27T19:42:35.409Z,20.90
2018-09-27T19:47:39.214Z,20.80
2018-09-27T19:52:43.036Z,20.70
2018-09-27T19:57:47.087Z,20.60
2018-09-27T20:02:52.478Z,20.50
2018-09-27T20:07:56.289Z,20.40
2018-09-27T20:13:00.296Z,20.40
2018-09-27T20:18:04.073Z,20.30
2018-09-27T20:23:07.960Z,20.20
2018-09-27T20:28:11.933Z,20.10
2018-09-27T20:33:22.343Z,20.00
2018-09-27T20:38:26.039Z,19.90
2018-09-27T20:43:29.851Z,19.90
2018-09-27T20:48:33.605Z,19.80
2018-09-27T20:53:37.335Z,19.70
2018-09-27T20:58:41.052Z,19.60
2018-09-27T21:03:44.797Z,19.60
2018-09-27T21:08:48.571Z,19.50
2018-09-27T21:13:52.292Z,19.40
2018-09-27T21:18:56.031Z,19.30
2018-09-27T21:23:59.770Z,19.20
2018-09-27T21:29:03.683Z,19.20
2018-09-27T21:34:07.427Z,19.10
2018-09-27T21:39:11.154Z,19.00
2018-09-27T21:44:14.870Z,19.00
2018-09-27T21:49:19.475Z,18.90
2018-09-27T21:54:23.199Z,18.80
2018-09-27T21:59:26.907Z,18.80
2018-09-27T22:04:30.624Z,18.80
2018-09-27T22:09:34.439Z,18.70
2018-09-27T22:14:38.219Z,18.60
2018-09-27T22:19:41.986Z,18.60
2018-09-27T22:24:46.063Z,18.50
2018-09-27T22:29:49.783Z,18.40
2018-09-27T22:34:53.518Z,18.40
2018-09-27T22:39:57.251Z,18.40
2018-09-27T22:45:00.992Z,18.30
2018-09-27T22:50:04.715Z,18.30
2018-09-27T22:55:08.472Z,18.20
2018-09-27T23:00:12.215Z,18.20
2018-09-27T23:05:15.933Z,18.20
2018-09-27T23:10:19.643Z,18.10
2018-09-27T23:15:23.383Z,18.10
2018-09-27T23:20:27.112Z,18.10
2018-09-27T23:25:30.851Z,18.00
2018-09-27T23:30:34.588Z,18.00
2018-09-27T23:35:38.371Z,18.10
2018-09-27T23:40:42.085Z,18.10
2018-09-27T23:45:45.808Z,18.10
2018-09-27T23:50:49.535Z,18.10
2018-09-27T23:55:53.287Z,18.10
